Saucier, Mississippi
Current Conditions -  °F | °C
As of 6:53 PM on Thursday 27 Nov 2014 (Local Time) from KGPT Reporting Station
Clear Clear  
Wind Chill: 46°   Ceiling: Unl
Heat Index: 48°   Visibility: 10mi
Dew Point: 33°   Wind: 5mph
Humidity: 56%   Direction: 350°N
Pressure: 30.43"   Gusts: NA
Location:  30.64°N, 89.13°W
Report Text: KGPT 280053Z 35004KT 10SM CLR 09/01 A3043 RMK AO2 SLP304 T00890006 PNO $
Loading
Personal Weather Stations






























Interactive Weather Map New forecast layout! Learn more

10-Day Weather Forecast

Advertisements
Track Severe Weather on mobile